• Join FlightAware (Why Join?)
  • Login
  • US Flag 
04:02AM EDT


 

Airport Tracker/Info


-or-


 

Live Flight TrackerFlight Track Log ✈ SWA1323 ✈ 15-Jun-2013 ✈ KRNO - KLAX

Flight Track Log - Related Links

Times and Time Zones

All times are in EDT time to prevent confusion due to time zone crossing. See the SWA1323 flight status page for this flight to view local times or setup timezone preferences in your user account.

Time Position Orientation Groundspeed Altitude Reporting Facility
EDT Latitude Longitude Course Direction KTS MPH feet Rate Location/Type
09:51PM 39.5000 -119.7667 349° North 155 178 4,700  Level Northern Cal TRACON
09:52PM 39.5667 -119.7833 349° North 219 252 7,400 3,240 Climbing Northern Cal TRACON
09:54PM 39.6083 -119.7100 54° Northeast 226 260 13,300 3,060 Climbing Oakland Center
09:55PM 39.5400 -119.6958 171° South 262 302 15,600 2,700 Climbing Oakland Center
09:56PM 39.4472 -119.6936 179° South 311 358 18,900 3,480 Climbing Oakland Center
09:57PM 39.3242 -119.6897 179° South 354 407 22,700 3,240 Climbing Oakland Center
09:58PM 39.2161 -119.6875 179° South 377 434 25,600 2,700 Climbing Oakland Center
09:59PM 39.1031 -119.6833 178° South 397 457 28,300 2,340 Climbing Oakland Center
10:00PM 38.9864 -119.6808 179° South 415 478 30,400 2,040 Climbing Oakland Center
10:01PM 38.8656 -119.6786 179° South 429 494 32,500 2,220 Climbing Oakland Center
10:02PM 38.7425 -119.6758 179° South 439 505 34,900 2,280 Climbing Oakland Center
10:03PM 38.6233 -119.6722 179° South 435 501 37,200 1,860 Climbing Oakland Center
10:04PM 38.5050 -119.6694 179° South 429 494 38,800 840 Climbing Oakland Center
10:05PM 38.3808 -119.6669 179° South 425 489 39,000 60 Climbing Oakland Center
10:06PM 38.2661 -119.6647 179° South 414 476 39,000  Level Oakland Center
10:07PM 38.1500 -119.6622 179° South 415 478 39,000  Level Oakland Center
10:08PM 38.0358 -119.6592 179° South 410 472 39,000  Level Oakland Center
10:09PM 37.9189 -119.6569 179° South 417 480 39,000  Level Oakland Center
10:10PM 37.8006 -119.6539 179° South 421 484 39,000  Level Oakland Center
10:11PM 37.6842 -119.6514 179° South 417 480 39,000  Level Oakland Center
10:12PM 37.5689 -119.6478 179° South 413 475 39,000  Level Oakland Center
10:13PM 37.4292 -119.6458 179° South 415 478 39,000  Level Oakland Center
10:14PM 37.3333 -119.6436 179° South 412 474 39,000  Level Oakland Center
10:15PM 37.2183 -119.6408 179° South 413 475 39,000  Level Oakland Center
10:16PM 37.0789 -119.6378 179° South 416 479 39,000  Level Oakland Center
10:17PM 36.9628 -119.6356 179° South 418 481 39,000  Level Oakland Center
10:18PM 36.8458 -119.6325 179° South 419 482 39,000  Level Oakland Center
10:19PM 36.7289 -119.6322 180° South 420 483 39,000  Level Oakland Center
10:20PM 36.6119 -119.6292 179° South 420 483 39,000  Level Oakland Center
10:21PM 36.4944 -119.6258 179° South 421 484 39,000  Level Oakland Center
10:22PM 36.3778 -119.6244 179° South 419 482 39,000  Level Oakland Center
10:23PM 36.2614 -119.6214 179° South 417 480 39,000  Level Oakland Center
10:24PM 36.1461 -119.6181 179° South 416 479 39,000  Level Oakland Center
10:25PM 36.0314 -119.6161 179° South 412 474 39,000  Level Oakland Center
10:26PM 35.9156 -119.6164 180° South 414 476 39,000  Level Oakland Center
10:27PM 35.8014 -119.6217 182° South 410 472 39,000  Level Oakland Center
10:28PM 35.6872 -119.6247 181° South 409 471 39,000  Level Oakland Center
10:29PM 35.5756 -119.6300 182° South 405 466 39,000  Level Los Angeles Center
10:30PM 35.4636 -119.6344 182° South 403 464 39,000  Level Los Angeles Center
10:31PM 35.3497 -119.6383 182° South 404 465 39,000  Level Los Angeles Center
10:32PM 35.2356 -119.6214 173° South 419 482 39,000 -720 Level Los Angeles Center
10:33PM 35.1344 -119.5369 146° Southeast 440 506 37,600 -2,100 Descending Los Angeles Center
10:34PM 35.0336 -119.4511 145° Southeast 440 506 34,800 -2,940 Descending Los Angeles Center
10:35PM 34.9328 -119.3644 145° Southeast 441 507 31,600 -2,880 Descending Los Angeles Center
10:36PM 34.8306 -119.2803 146° Southeast 443 510 28,900 -2,820 Descending Los Angeles Center
10:37PM 34.7144 -119.1828 145° Southeast 427 491 25,900 -2,460 Descending Los Angeles Center
10:39PM 34.6342 -119.1147 145° Southeast 411 473 23,900 -2,160 Descending Los Angeles Center
10:40PM 34.5428 -119.0367 145° Southeast 403 464 21,500 -2,520 Descending Los Angeles Center
10:41PM 34.4367 -118.9489 146° Southeast 384 442 18,800 -2,400 Descending Los Angeles Center
10:42PM 34.3525 -118.8817 147° Southeast 363 418 16,600 -2,280 Descending Los Angeles Center
10:43PM 34.2583 -118.8444 162° South 357 411 14,200 -2,280 Descending Los Angeles Center
10:44PM 34.1683 -118.8125 164° South 341 392 12,000 -1,800 Descending Los Angeles Center
10:45PM 34.0753 -118.7783 163° South 320 368 10,600 -1,020 Descending Los Angeles Center
10:46PM 34.0333 -118.7028 124° Southeast 288 331 10,000 -540 Descending Los Angeles Center
10:47PM 34.0256 -118.6228 97° East 244 281 9,600 -720 Descending Los Angeles Center
10:48PM 34.0178 -118.5400 96° East 233 268 8,600 -1,080 Descending Los Angeles Center
10:49PM 34.0103 -118.4636 97° East 229 264 7,500 -1,260 Descending Los Angeles Center
10:50PM 34.0192 -118.3894 82° East 219 252 6,100 -1,620 Descending Los Angeles Center
10:51PM 34.0258 -118.3175 84° East 217 250 4,300 -1,800 Descending Los Angeles Center
10:52PM 33.9883 -118.2864 145° Southeast 208 239 2,500 -1,440 Descending Los Angeles Center
10:53PM 33.9606 -118.3308 233° Southwest 185 213 1,400 -960 Descending Los Angeles Center
10:54PM 33.9556 -118.3758 262° West 156 180 600 -660 Descending Los Angeles Center
10:55PM 33.9506 -118.4192 262° West 139 160 100 -540 Descending Los Angeles Center
10:57PM 33.9425 -118.4081 231° Southwest  Level Estimated